Webcam 1 more information Webcam 1


Webcam 2 more information Webcam 2


altri nostri siti meteo:

Pomeziameteo 1Sito sul meteo

Pomeziameteo DashboardSito sul meteo

Caput FrigorisSito sul meteo

BarcellonameteoSito sul meteo

MeteoipassiSito sul meteo

ViterbometeoSito sul meteo

MeteotortoretoSito sul meteo

Stazione LineameteoSito sul meteo



Nessuna attenzione particolare richiesta.    Non ci sono allerte meteo

Notice: Undefined offset: 6 in /web/htdocs/www.castelnuovovomanometeo.it/home/weather28/metar/metarDisplay.php on line 76

Notice: Undefined offset: 5 in /web/htdocs/www.castelnuovovomanometeo.it/home/weather28/metar/metarDisplay.php on line 76

Report METAR

   
LIBP - Pescara
Dati ricevuti: 22-09-2021 14:50
DATI Obsoleti
Sereno  
Sereno  
   Vento: NE 20.4 km/h
Vento: NE 20.4 km/h
Temperatura: 23°C
P.to Rugiada: 11°C
Umidita: 47%
Barometro: 1022 hPa
Nuvole: Sereno
Visibilita: oltre 10 km
dettagli cloud: Sereno
LIBP 221250Z AUTO 04011KT 340V050 9999 NCD 23/11 Q1022
LIRZ - Perugia
Dati ricevuti: 22-09-2021 14:50
DATI Obsoleti
Sereno  
Sereno  
   Vento: NE 16.7 km/h
Vento: NE 16.7 km/h
Temperatura: 24°C
P.to Rugiada: 9°C
Umidita: 39%
Barometro: 1020 hPa
Nuvole: Sereno
Visibilita: oltre 10 km
dettagli cloud: Sereno
LIRZ 221250Z AUTO 03009KT 350V050 9999 NCD 24/09 Q1020
LIQN - Rieti
Dati ricevuti: 22-09-2021 13:50
DATI Obsoleti
Sereno  
Sereno  
   Vento: NO 13 km/h
Vento: NO 13 km/h
Temperatura: 26°C
P.to Rugiada: 7°C
Umidita: 30%
Barometro: 1020 hPa
Visibilita: oltre 10 km
dettagli cloud: Sereno
LIQN 221150Z 32007KT 260V340 CAVOK 26/07 Q1020
LIPY - Falconara
Dati ricevuti: 22-09-2021 14:50
DATI Obsoleti
Poche nuvole  
Poche nuvole  
   Vento: NE 11.1 km/h
Vento: NE 11.1 km/h
Temperatura: 22°C
P.to Rugiada: 9°C
Umidita: 44%
Barometro: 1022 hPa
Nuvole: Poche nuvole
Visibilita: oltre 10 km
dettagli cloud: Poche nuvole 25000 ft
LIPY 221250Z AUTO 03006KT 340V110 9999 FEW250/// 22/09 Q1022
  

Script sviluppato da  Saratoga-weather.org Adattato per il modello da  Weerstation Leuven

Potete trovare le nostre info meteo anche a:

Weather Underground

AWEKAS

Citizen Weather Observer Program (CWOP)

HAMweather, WeatherForYou, PWS Weather

Strumentazione usata:

Stazione meteo
Oregon 928

Programma gestore dati meteo
WVIEW

Server per i dati meteo
Pc-WDS5

Oregon 928

WVIEW

Pc-WDS5